Orbital elements of COSMOS 2251 DEB
| Launched | 15 June 1993 |
| Flight ended | – |
| Launch site | Plesetsk Missile and Space Complex, Russia |
| Owner | Commonwealth of Independent States (former USSR) |
| NORAD ID | 35441 |
| Date fetched |
Epoch osculation |
Inc. [°] |
Ecc. | RA asc node [hr] |
Arg Peri. [°] |
Mean anom [°] |
Mean motion [rev/day] |
Abs. mag |
| Date fetched |
Epoch osculation |
Inc. [°] |
Ecc. | RA asc node [hr] |
Arg Peri. [°] |
Mean anom [°] |
Mean motion [rev/day] |
Abs. mag |
| 2026 May 04 17:57 | 2026 Apr 30 11:29:42 | 74.1352 | 0.00358 | 2.2213 | 241.4447 | 118.3119 | 14.64932 | – |
| 2026 May 03 17:57 | 2026 Apr 30 11:29:42 | 74.1352 | 0.00358 | 2.2213 | 241.4447 | 118.3119 | 14.64932 | – |
| 2026 May 02 17:57 | 2026 Apr 30 11:29:42 | 74.1352 | 0.00358 | 2.2213 | 241.4447 | 118.3119 | 14.64932 | – |
| 2026 May 01 17:56 | 2026 Apr 30 11:29:42 | 74.1352 | 0.00358 | 2.2213 | 241.4447 | 118.3119 | 14.64932 | – |
| 2026 Apr 30 17:56 | 2026 Apr 30 11:29:42 | 74.1352 | 0.00358 | 2.2213 | 241.4447 | 118.3119 | 14.64932 | – |
| 2026 Apr 29 17:57 | 2026 Apr 24 03:03:54 | 74.1344 | 0.00362 | 3.0308 | 255.4872 | 118.3119 | 14.64932 | – |
| 2026 Apr 28 17:56 | 2026 Apr 24 03:03:54 | 74.1344 | 0.00362 | 3.0308 | 255.4872 | 118.3119 | 14.64932 | – |
| 2026 Apr 27 17:58 | 2026 Apr 24 03:03:54 | 74.1344 | 0.00362 | 3.0308 | 255.4872 | 118.3119 | 14.64932 | – |
| 2026 Apr 26 17:58 | 2026 Apr 24 03:03:54 | 74.1344 | 0.00362 | 3.0308 | 255.4872 | 118.3119 | 14.64932 | – |
| 2026 Apr 25 17:58 | 2026 Apr 24 03:03:54 | 74.1344 | 0.00362 | 3.0308 | 255.4872 | 118.3119 | 14.64932 | – |
| 2026 Apr 24 17:59 | 2026 Apr 24 03:03:54 | 74.1344 | 0.00362 | 3.0308 | 255.4872 | 118.3119 | 14.64932 | – |
| 2026 Apr 23 17:57 | 2026 Apr 19 05:02:57 | 74.1346 | 0.00365 | 3.6574 | 266.1598 | 118.3119 | 14.64932 | – |
| 2026 Apr 22 17:57 | 2026 Apr 19 05:02:57 | 74.1346 | 0.00365 | 3.6574 | 266.1598 | 118.3119 | 14.64932 | – |
| 2026 Apr 21 17:57 | 2026 Apr 19 05:02:57 | 74.1346 | 0.00365 | 3.6574 | 266.1598 | 118.3119 | 14.64932 | – |
| 2026 Apr 20 17:57 | 2026 Apr 19 05:02:57 | 74.1346 | 0.00365 | 3.6574 | 266.1598 | 118.3119 | 14.64932 | – |
| 2026 Apr 19 17:58 | 2026 Apr 19 05:02:57 | 74.1346 | 0.00365 | 3.6574 | 266.1598 | 118.3119 | 14.64932 | – |
| 2026 Apr 18 17:56 | 2026 Apr 12 04:12:52 | 74.1327 | 0.00368 | 4.5538 | 281.2318 | 118.3119 | 14.64932 | – |
| 2026 Apr 16 17:57 | 2026 Apr 12 04:12:52 | 74.1327 | 0.00368 | 4.5538 | 281.2318 | 118.3119 | 14.64932 | – |
| 2026 Apr 14 17:57 | 2026 Apr 12 04:12:52 | 74.1327 | 0.00368 | 4.5538 | 281.2318 | 118.3119 | 14.64932 | – |
| 2026 Apr 13 17:57 | 2026 Apr 12 04:12:52 | 74.1327 | 0.00368 | 4.5538 | 281.2318 | 118.3119 | 14.64932 | – |
| 2026 Apr 12 17:57 | 2026 Apr 06 15:26:11 | 74.1330 | 0.00371 | 5.2588 | 292.8680 | 118.3119 | 14.64932 | – |
| 2026 Apr 11 17:57 | 2026 Apr 06 15:26:11 | 74.1330 | 0.00371 | 5.2588 | 292.8680 | 118.3119 | 14.64932 | – |
| 2026 Apr 10 17:58 | 2026 Apr 06 15:26:11 | 74.1330 | 0.00371 | 5.2588 | 292.8680 | 118.3119 | 14.64932 | – |
| 2026 Apr 09 18:01 | 2026 Apr 06 15:26:11 | 74.1330 | 0.00371 | 5.2588 | 292.8680 | 118.3119 | 14.64932 | – |
| 2026 Apr 08 17:57 | 2026 Apr 06 15:26:11 | 74.1330 | 0.00371 | 5.2588 | 292.8680 | 118.3119 | 14.64932 | – |
| 2026 Apr 07 17:57 | 2026 Apr 02 06:31:08 | 74.1318 | 0.00372 | 5.8157 | 302.2625 | 118.3119 | 14.64932 | – |